NO-0030 weather

Ose Airfield
Aust-Agder, Norway

Public forecast

Using degrees Celsius for public forecast. Weather courtesy of forecast.io.

METAR (pilot weather report)

Closest report is Kristiansand Airport, 45.8 nm (84.9 km) SSE. Retrieved 2019/05/22 15:20 UTC (0 seconds ago):

ENCN 221520Z 26011KT 9999 BKN017 14/10 Q1010

TAF (pilot weather forecast)

Forecast is more than 12 hours old.

Closest forecast is Kristiansand Airport, 45.8 nm (84.9 km) SSE. Retrieved 2016/05/06 12:39 UTC (3 years ago):

TAF TAF ENCN 061100Z 0612/0712 14008KT 9999 FEW040